Главная страница
METAR-TAF:

METAR-TAF

Аэропорты :

Коккола-Пиетарсаари

Коккола, Финляндия

широта: 63-43N, долгота: 023-09E, высота над уровнем моря: 25 м

Текущие метеонаблюдения

Эта сводка был подготовлена 30 минут назад, в 14:50 UTC
Ветер 12 Узел от северный
Температура 19°C
Влажность 40%
Давление 1012 hPa
Видимость 10 км и более
Нет облачности ниже 1500 м, и нет кучево-дождевой облачности

METAR: EFKK 221450Z AUTO 01012KT CAVOK 19/05 Q1012

Время: 18:20 (15:20 UTC)


TAF: отсутствует

Метеонаблюдения и прогнозы для более 4000 аэропортов (сводки METAR и TAF).

Имеющиеся станции представлены на карте желтыми и красными точками.

Чтобы увидеть название станции, наведите на нее мышь.

Затем щелкните, чтобы увидеть метеонаблюдения и метеопрогнозы.

Управление картой: чтобы увеличить масштаб, щелкните зеленые кнопки с черным крестиком; чтобы уменьшить масштаб, щелкните зеленую кнопку с тире; для просмотра соседних карт щелкайте зеленые стрелки.


METAR-TAF: